Time;durP1;ratioP1;P1;durP2;ratioP2;P2;SDS_P1;SDS_P2;PMS_P1;PMS_P2;Temp;Humidity;BMP_temperature;BMP_pressure;BME280_temperature;BME280_humidity;BME280_pressure;Samples;Min_cycle;Max_cycle;Signal;HPM_P1;HPM_P2
2022/11/07 00:01:58;;;;;;;39.05;22.17;;;;;;;11.21;76.65;94160.19;5044940;28;20025;-85
2022/11/07 00:04:23;;;;;;;37.88;21.00;;;;;;;11.17;76.67;94145.06;5044844;28;20049;-85
2022/11/07 00:06:49;;;;;;;38.33;20.85;;;;;;;11.14;76.79;94153.72;5045054;28;20029;-85
2022/11/07 00:09:14;;;;;;;53.30;21.50;;;;;;;11.09;76.57;94151.94;5045018;28;20053;-85
2022/11/07 00:11:40;;;;;;;38.17;20.67;;;;;;;11.02;76.44;94147.06;5044753;28;20082;-85
2022/11/07 00:14:05;;;;;;;35.78;20.80;;;;;;;10.97;76.36;94144.56;5044709;28;20025;-85
2022/11/07 00:16:31;;;;;;;58.25;23.58;;;;;;;10.91;76.80;94152.97;5044933;28;20032;-85
2022/11/07 00:18:57;;;;;;;38.28;21.25;;;;;;;10.87;77.52;94146.69;5044820;28;20025;-85
2022/11/07 00:21:22;;;;;;;37.50;20.50;;;;;;;10.84;77.42;94143.53;5044789;28;20063;-85
2022/11/07 00:23:48;;;;;;;40.13;21.75;;;;;;;10.84;77.15;94140.09;5044594;28;20021;-85
2022/11/07 00:26:14;;;;;;;38.67;20.13;;;;;;;10.86;76.90;94151.25;5044638;28;20090;-84
2022/11/07 00:28:42;;;;;;;33.15;20.65;;;;;;;10.79;76.79;94132.25;5044689;28;20100;-85
2022/11/07 00:31:09;;;;;;;36.33;19.73;;;;;;;10.74;76.81;94143.03;5044448;28;20053;-85
2022/11/07 00:33:35;;;;;;;36.03;20.55;;;;;;;10.70;76.90;94150.84;5044155;28;20042;-84
2022/11/07 00:36:01;;;;;;;40.30;19.92;;;;;;;10.66;77.01;94149.09;5043376;28;20323;-85
2022/11/07 00:38:26;;;;;;;35.78;21.30;;;;;;;10.62;76.80;94149.72;5042981;28;20022;-85
2022/11/07 00:41:04;;;;;;;38.85;19.85;;;;;;;10.59;78.14;94149.53;5044376;28;20017;-85
2022/11/07 00:43:30;;;;;;;32.80;21.17;;;;;;;10.47;78.85;94152.75;5044534;28;20025;-85
2022/11/07 00:45:56;;;;;;;33.15;21.35;;;;;;;10.40;79.75;94160.38;5044254;28;20021;-85
2022/11/07 00:48:22;;;;;;;44.92;22.60;;;;;;;10.36;79.76;94154.91;5044392;28;20092;-85
2022/11/07 00:50:47;;;;;;;44.60;23.35;;;;;;;10.31;80.43;94159.56;5042861;28;20056;-85
2022/11/07 00:53:13;;;;;;;37.60;22.33;;;;;;;10.26;80.56;94152.47;5044155;28;20025;-87
2022/11/07 00:55:38;;;;;;;37.33;21.52;;;;;;;10.22;80.82;94160.25;5044285;28;20022;-87
2022/11/07 00:58:04;;;;;;;38.47;21.42;;;;;;;10.19;80.94;94158.19;5042809;28;20075;-87
2022/11/07 01:00:29;;;;;;;42.40;21.45;;;;;;;10.17;81.37;94155.03;5044218;28;20014;-87
2022/11/07 01:05:39;;;;;;;42.38;22.48;;;;;;;10.14;81.49;94146.88;5043890;28;20350;-87
2022/11/07 01:08:05;;;;;;;37.15;21.17;;;;;;;10.13;81.41;94143.41;5043830;28;20022;-87
2022/11/07 01:10:31;;;;;;;37.58;20.75;;;;;;;10.17;81.24;94138.28;5043631;28;20033;-86
2022/11/07 01:12:56;;;;;;;43.78;22.33;;;;;;;10.16;81.64;94145.50;5043898;28;20268;-86
2022/11/07 01:15:22;;;;;;;41.47;21.98;;;;;;;10.16;81.66;94136.72;5042535;28;20021;-86
2022/11/07 01:17:47;;;;;;;35.80;22.15;;;;;;;10.15;81.74;94133.25;5043572;28;20025;-86
2022/11/07 01:20:13;;;;;;;40.25;21.88;;;;;;;10.11;81.51;94134.16;5043821;28;20017;-86
2022/11/07 01:22:38;;;;;;;35.00;20.88;;;;;;;10.10;81.04;94136.03;5042278;28;20021;-86
2022/11/07 01:25:04;;;;;;;38.22;21.80;;;;;;;10.11;80.46;94134.16;5043560;28;20022;-86
2022/11/07 01:27:30;;;;;;;41.38;21.77;;;;;;;10.08;80.11;94135.56;5043596;28;20025;-85
2022/11/07 01:29:55;;;;;;;35.92;21.65;;;;;;;10.04;79.94;94126.59;5043454;28;20032;-86
2022/11/07 01:32:21;;;;;;;40.47;21.73;;;;;;;10.03;80.12;94122.34;5043149;28;20036;-86
2022/11/07 01:34:46;;;;;;;42.15;23.60;;;;;;;10.04;81.25;94123.94;5043410;28;20113;-86
2022/11/07 01:37:12;;;;;;;44.83;22.58;;;;;;;10.07;80.57;94122.53;5043338;28;20021;-86
2022/11/07 01:39:37;;;;;;;41.78;22.60;;;;;;;10.02;80.40;94124.25;5041968;28;20040;-85
2022/11/07 01:42:03;;;;;;;45.00;23.88;;;;;;;10.02;80.62;94123.47;5043136;28;20033;-85
2022/11/07 01:44:40;;;;;;;37.80;22.30;;;;;;;9.99;80.89;94118.72;5043005;28;20051;-86
2022/11/07 01:47:07;;;;;;;42.22;23.73;;;;;;;9.97;81.34;94113.72;5042879;28;20075;-86
2022/11/07 01:49:36;;;;;;;42.13;22.75;;;;;;;10.01;81.56;94120.00;5042925;28;20045;-86
2022/11/07 01:52:16;;;;;;;47.53;24.15;;;;;;;9.98;81.35;94119.81;5042988;28;20037;-86
2022/11/07 01:54:55;;;;;;;48.90;24.25;;;;;;;9.91;81.67;94117.59;5043048;28;20048;-86
2022/11/07 01:57:43;;;;;;;47.78;23.58;;;;;;;9.81;82.47;94113.28;5042874;28;20096;-86
2022/11/07 02:00:11;;;;;;;43.95;23.50;;;;;;;9.80;82.11;94129.56;5041807;28;20053;-86
2022/11/07 02:02:37;;;;;;;38.25;21.33;;;;;;;9.62;80.97;94128.63;5042949;28;20215;-86
2022/11/07 02:05:05;;;;;;;37.08;22.23;;;;;;;9.46;81.03;94135.34;5042931;28;20021;-86
2022/11/07 02:07:31;;;;;;;41.58;22.40;;;;;;;9.31;81.38;94145.22;5042620;28;20355;-84
2022/11/07 02:09:58;;;;;;;35.60;21.95;;;;;;;9.27;81.61;94140.81;5042745;28;20029;-87
2022/11/07 02:12:25;;;;;;;41.60;23.55;;;;;;;9.28;82.71;94140.50;5041721;28;20329;-86
2022/11/07 02:14:51;;;;;;;41.35;23.08;;;;;;;9.31;84.13;94139.13;5042814;28;20032;-87
2022/11/07 02:17:17;;;;;;;37.08;21.75;;;;;;;9.31;84.46;94141.78;5042782;28;20045;-87
2022/11/07 02:19:48;;;;;;;48.05;24.20;;;;;;;9.33;84.36;94142.28;5043272;28;20044;-90
2022/11/07 02:22:17;;;;;;;46.70;25.13;;;;;;;9.33;84.56;94142.28;5043736;28;20025;-91
2022/11/07 02:24:42;;;;;;;48.35;25.58;;;;;;;9.37;84.57;94144.03;5043773;28;20025;-90
2022/11/07 02:27:13;;;;;;;44.10;24.35;;;;;;;9.49;84.50;94142.75;5043323;28;20017;-91
2022/11/07 02:29:41;;;;;;;46.35;24.35;;;;;;;9.57;84.65;94139.38;5043291;28;20021;-90
2022/11/07 02:32:09;;;;;;;40.67;21.42;;;;;;;9.62;84.47;94134.72;5043206;28;20022;-90
2022/11/07 02:34:35;;;;;;;43.38;23.13;;;;;;;9.67;84.02;94139.16;5042236;28;20048;-91
2022/11/07 02:37:03;;;;;;;49.72;22.15;;;;;;;9.67;83.04;94141.81;5043305;28;20021;-90
2022/11/07 02:39:29;;;;;;;40.63;22.08;;;;;;;9.70;82.20;94135.88;5042353;28;20021;-85
2022/11/07 02:41:56;;;;;;;38.50;22.50;;;;;;;9.67;81.73;94136.50;5042505;28;20044;-87
2022/11/07 02:44:22;;;;;;;41.85;21.73;;;;;;;9.67;81.74;94131.19;5042516;28;20022;-87
2022/11/07 02:46:48;;;;;;;39.38;20.45;;;;;;;9.67;81.26;94141.00;5042636;28;20028;-87
2022/11/07 02:49:13;;;;;;;38.45;19.63;;;;;;;9.67;80.54;94141.81;5042635;28;20021;-87
2022/11/07 02:51:38;;;;;;;37.20;20.17;;;;;;;9.63;79.98;94140.84;5042445;28;20067;-87
2022/11/07 02:54:04;;;;;;;39.63;19.85;;;;;;;9.58;80.01;94133.75;5042413;28;20084;-86
2022/11/07 02:56:29;;;;;;;37.72;19.73;;;;;;;9.59;79.71;94134.53;5042682;28;20312;-87
2022/11/07 02:58:55;;;;;;;35.60;20.83;;;;;;;9.57;79.48;94132.19;5042454;28;20100;-87
2022/11/07 03:01:21;;;;;;;39.08;18.33;;;;;;;9.56;79.31;94138.56;5045748;28;20093;-87
2022/11/07 03:03:49;;;;;;;31.55;19.10;;;;;;;9.54;78.67;94132.75;5046443;28;20021;-83
2022/11/07 03:06:24;;;;;;;28.60;16.63;;;;;;;9.55;78.27;94138.88;5046307;28;20021;-83
2022/11/07 03:08:50;;;;;;;30.05;16.17;;;;;;;9.49;77.71;94145.41;5045915;28;20021;-85
2022/11/07 03:11:19;;;;;;;29.58;16.77;;;;;;;9.43;77.51;94137.53;5046120;28;20101;-86
2022/11/07 03:13:46;;;;;;;29.60;16.20;;;;;;;9.38;77.56;94148.28;5046508;28;20219;-87
2022/11/07 03:16:12;;;;;;;34.05;16.35;;;;;;;9.31;77.90;94147.09;5046203;28;20096;-87
2022/11/07 03:18:38;;;;;;;31.60;17.65;;;;;;;9.25;78.15;94138.44;5046131;28;20029;-87
2022/11/07 03:21:04;;;;;;;34.13;17.77;;;;;;;9.23;78.10;94148.59;5045862;28;20013;-87
2022/11/07 03:23:30;;;;;;;33.88;16.60;;;;;;;9.22;77.86;94147.03;5045927;28;20017;-87
2022/11/07 03:25:56;;;;;;;31.15;17.33;;;;;;;9.20;77.47;94162.50;5046450;28;20019;-88
2022/11/07 03:28:22;;;;;;;34.42;18.10;;;;;;;9.14;77.83;94150.34;5046105;28;20025;-88
2022/11/07 03:30:47;;;;;;;33.92;19.58;;;;;;;9.02;78.26;94142.88;5046061;28;20041;-88
2022/11/07 03:33:13;;;;;;;34.90;17.92;;;;;;;9.00;78.47;94151.16;5046027;28;20029;-88
2022/11/07 03:35:38;;;;;;;35.63;16.60;;;;;;;9.02;79.17;94149.00;5045938;28;20021;-88
2022/11/07 03:38:03;;;;;;;38.70;17.98;;;;;;;8.99;79.68;94157.53;5046019;28;20578;-88
2022/11/07 03:40:29;;;;;;;33.35;18.70;;;;;;;8.96;79.88;94170.66;5046244;28;20031;-87
2022/11/07 03:42:55;;;;;;;33.40;18.27;;;;;;;8.93;80.34;94165.91;5045739;28;20028;-88
2022/11/07 03:45:20;;;;;;;30.20;18.48;;;;;;;8.93;80.20;94173.88;5045716;28;20021;-88
2022/11/07 03:47:46;;;;;;;40.28;19.27;;;;;;;8.96;80.63;94174.09;5045729;28;20025;-87
2022/11/07 03:50:17;;;;;;;27.05;17.30;;;;;;;8.97;80.39;94188.16;5045675;28;20033;-88
2022/11/07 03:52:43;;;;;;;28.77;17.30;;;;;;;9.00;80.48;94182.28;5045874;28;20373;-88
2022/11/07 03:55:09;;;;;;;39.55;19.02;;;;;;;9.00;80.40;94185.72;5045399;28;20021;-88
2022/11/07 03:57:35;;;;;;;35.45;19.55;;;;;;;9.05;80.81;94187.50;5045497;28;20029;-87
2022/11/07 04:00:01;;;;;;;35.50;18.60;;;;;;;9.09;80.98;94195.66;5044210;28;20024;-88
2022/11/07 04:02:26;;;;;;;42.90;19.27;;;;;;;9.12;80.68;94185.25;5045381;28;20025;-86
2022/11/07 04:04:52;;;;;;;35.45;18.88;;;;;;;9.15;80.65;94194.50;5045261;28;20018;-87
2022/11/07 04:07:17;;;;;;;34.38;18.58;;;;;;;9.17;80.27;94193.09;5045384;28;20032;-87
2022/11/07 04:09:42;;;;;;;30.83;17.70;;;;;;;9.19;79.78;94187.50;5044982;28;20021;-86
2022/11/07 04:17:49;;;;;;;33.40;17.38;;;;;;;9.22;78.62;94206.31;5025940;28;20029;-87
2022/11/07 04:20:15;;;;;;;30.92;17.67;;;;;;;9.23;77.92;94204.44;5045152;28;20024;-87
2022/11/07 04:22:40;;;;;;;34.63;16.42;;;;;;;9.25;77.63;94210.25;5044935;28;20272;-87
2022/11/07 04:25:06;;;;;;;25.10;16.27;;;;;;;9.22;77.55;94203.66;5044970;28;20025;-87
2022/11/07 04:27:45;;;;;;;26.88;14.25;;;;;;;9.22;77.38;94205.53;5044672;28;20189;-87
2022/11/07 04:30:21;;;;;;;31.58;16.23;;;;;;;9.20;77.09;94197.84;5044923;28;20022;-87
2022/11/07 04:32:58;;;;;;;27.40;15.30;;;;;;;9.19;76.93;94206.13;5043967;28;20033;-88
2022/11/07 04:35:26;;;;;;;30.50;15.23;;;;;;;9.17;76.70;94206.41;5044929;28;20045;-86
2022/11/07 04:37:52;;;;;;;27.25;14.68;;;;;;;9.18;76.53;94209.84;5045009;28;20025;-88
2022/11/07 04:40:18;;;;;;;33.50;15.98;;;;;;;9.17;76.67;94210.94;5043824;28;20022;-88
2022/11/07 04:42:44;;;;;;;26.33;16.00;;;;;;;9.22;76.57;94210.84;5045151;28;20043;-89
2022/11/07 04:45:11;;;;;;;29.33;15.82;;;;;;;9.23;76.61;94204.44;5045007;28;20033;-88
2022/11/07 04:47:38;;;;;;;31.67;17.77;;;;;;;9.22;76.57;94210.84;5044620;28;20025;-88
2022/11/07 04:50:05;;;;;;;34.05;17.48;;;;;;;9.23;76.88;94204.44;5044527;28;20343;-87
2022/11/07 04:52:30;;;;;;;31.52;17.00;;;;;;;9.25;77.19;94204.94;5044552;28;20026;-88
2022/11/07 04:54:56;;;;;;;32.67;16.33;;;;;;;9.27;77.06;94205.41;5044303;28;20021;-87
2022/11/07 04:57:21;;;;;;;29.92;15.35;;;;;;;9.30;77.14;94212.00;5044103;28;20109;-85
2022/11/07 04:59:46;;;;;;;26.95;16.48;;;;;;;9.30;76.78;94212.81;5044050;28;20018;-85
2022/11/07 05:02:12;;;;;;;30.17;15.82;;;;;;;9.34;76.91;94213.81;5044161;28;20304;-86
2022/11/07 05:04:38;;;;;;;37.08;16.80;;;;;;;9.38;77.13;94208.66;5044179;28;20287;-88
2022/11/07 05:07:04;;;;;;;27.13;16.98;;;;;;;9.45;77.26;94219.72;5044568;28;20301;-89
2022/11/07 05:09:30;;;;;;;31.90;17.42;;;;;;;9.50;77.03;94219.59;5044526;28;20117;-89
2022/11/07 05:11:56;;;;;;;34.28;16.42;;;;;;;9.53;77.17;94229.66;5042995;28;20025;-87
2022/11/07 05:14:21;;;;;;;40.53;17.42;;;;;;;9.55;76.58;94224.03;5044776;28;20059;-90
2022/11/07 05:16:49;;;;;;;37.33;17.48;;;;;;;9.57;76.35;94224.53;5043743;28;20025;-90
2022/11/07 05:19:16;;;;;;;31.63;19.27;;;;;;;9.60;76.88;94221.25;5044744;28;20021;-90
2022/11/07 05:21:42;;;;;;;41.75;17.95;;;;;;;9.63;77.14;94231.34;5044477;28;20017;-91
2022/11/07 05:24:08;;;;;;;37.22;18.50;;;;;;;9.67;77.31;94234.97;5044039;28;20029;-91
2022/11/07 05:26:33;;;;;;;35.00;19.75;;;;;;;9.72;77.28;94234.06;5044448;28;20028;-91
2022/11/07 05:28:59;;;;;;;32.53;18.05;;;;;;;9.79;77.43;94237.09;5044463;28;20025;-91
2022/11/07 05:31:24;;;;;;;30.73;17.73;;;;;;;9.84;77.33;94235.13;5044512;28;20089;-91
2022/11/07 05:33:50;;;;;;;34.72;18.02;;;;;;;9.92;77.51;94248.84;5042730;28;20049;-87
2022/11/07 05:36:17;;;;;;;36.15;17.40;;;;;;;10.01;77.58;94249.69;5043368;28;20262;-89
2022/11/07 05:38:46;;;;;;;28.42;17.65;;;;;;;10.06;77.71;94246.16;5041921;28;20029;-85
2022/11/07 05:41:13;;;;;;;32.08;17.95;;;;;;;10.12;77.78;94252.94;5042718;28;20017;-84
2022/11/07 05:43:39;;;;;;;33.25;19.00;;;;;;;10.19;77.04;94248.75;5042858;28;20250;-85
2022/11/07 05:46:05;;;;;;;41.75;18.30;;;;;;;10.26;77.23;94259.03;5042770;28;20096;-85
2022/11/07 05:48:31;;;;;;;38.08;18.90;;;;;;;10.32;76.96;94254.38;5042622;28;20031;-85
2022/11/07 05:50:57;;;;;;;29.48;17.88;;;;;;;10.39;76.85;94258.19;5042238;28;20260;-85
2022/11/07 05:53:24;;;;;;;46.67;19.00;;;;;;;10.49;76.99;94259.84;5042466;28;20017;-85
2022/11/07 05:55:50;;;;;;;35.60;18.67;;;;;;;10.60;76.92;94265.72;5042400;28;20215;-85
2022/11/07 05:58:16;;;;;;;36.67;18.67;;;;;;;10.70;76.72;94267.38;5042479;28;20240;-85
2022/11/07 06:00:41;;;;;;;37.70;18.92;;;;;;;10.77;76.09;94273.84;5042239;28;20083;-85
2022/11/07 06:03:07;;;;;;;36.78;19.05;;;;;;;10.88;76.13;94273.59;5042078;28;20267;-85
2022/11/07 06:05:33;;;;;;;39.20;18.77;;;;;;;10.97;75.77;94263.75;5042291;28;20024;-84
2022/11/07 06:07:58;;;;;;;33.53;17.52;;;;;;;11.04;74.80;94270.25;5042180;28;20017;-88
2022/11/07 06:10:24;;;;;;;42.78;18.95;;;;;;;11.11;74.50;94279.69;5041026;28;20021;-88
2022/11/07 06:12:58;;;;;;;39.05;19.38;;;;;;;11.16;74.34;94275.03;5042153;28;20018;-86
2022/11/07 06:15:25;;;;;;;35.33;19.60;;;;;;;11.22;74.38;94283.69;5041056;28;20018;-86
2022/11/07 06:17:51;;;;;;;42.00;19.33;;;;;;;11.30;74.15;94284.84;5040906;28;20100;-85
2022/11/07 06:20:18;;;;;;;41.35;19.20;;;;;;;11.36;73.78;94287.06;5041961;28;20013;-86
2022/11/07 06:22:44;;;;;;;32.60;18.88;;;;;;;11.43;73.50;94284.72;5042166;28;20029;-88
2022/11/07 06:25:09;;;;;;;40.08;20.23;;;;;;;11.52;73.75;94298.13;5040792;28;20059;-87
2022/11/07 06:27:35;;;;;;;37.28;19.65;;;;;;;11.60;73.75;94294.69;5041934;28;20039;-87
2022/11/07 06:30:00;;;;;;;41.38;21.20;;;;;;;11.69;73.60;94286.72;5041675;28;20096;-87
2022/11/07 06:32:26;;;;;;;35.58;20.75;;;;;;;11.79;73.36;94296.34;5042046;28;20089;-85
2022/11/07 06:34:52;;;;;;;36.17;20.05;;;;;;;11.84;73.16;94294.31;4998420;28;1232576;-85
2022/11/07 06:37:18;;;;;;;36.92;19.38;;;;;;;11.92;73.37;94300.00;5042783;28;20021;-85
2022/11/07 06:39:43;;;;;;;41.90;20.23;;;;;;;12.00;73.00;94293.91;5041297;28;20326;-85
2022/11/07 06:42:09;;;;;;;43.60;22.05;;;;;;;12.03;72.41;94302.09;5042714;28;20075;-85
2022/11/07 06:44:35;;;;;;;45.63;24.77;;;;;;;12.00;71.91;94301.91;5042586;28;20231;-86
2022/11/07 06:47:00;;;;;;;56.25;33.50;;;;;;;11.97;72.52;94306.00;5042569;28;20025;-87
2022/11/07 06:49:26;;;;;;;47.83;26.80;;;;;;;11.93;72.39;94315.72;5041342;28;20025;-87
2022/11/07 06:51:51;;;;;;;41.55;21.63;;;;;;;11.83;73.17;94316.75;5042992;28;20033;-85
2022/11/07 06:54:17;;;;;;;46.42;24.38;;;;;;;11.80;73.30;94314.69;5042779;28;20028;-85
2022/11/07 06:56:42;;;;;;;38.88;22.85;;;;;;;11.78;72.88;94318.78;5042516;28;20342;-87
2022/11/07 06:59:08;;;;;;;42.95;22.63;;;;;;;11.76;73.22;94313.75;5042608;28;20045;-85
2022/11/07 07:01:33;;;;;;;39.88;21.67;;;;;;;11.76;73.96;94321.75;5042325;28;20295;-85
2022/11/07 07:03:59;;;;;;;37.33;21.13;;;;;;;11.76;74.05;94318.31;5042543;28;20037;-85
2022/11/07 07:06:25;;;;;;;44.80;22.98;;;;;;;11.74;74.11;94325.84;5042066;28;20033;-85
2022/11/07 07:08:51;;;;;;;39.33;21.05;;;;;;;11.77;74.50;94328.69;5041213;28;20269;-86
2022/11/07 07:11:16;;;;;;;43.28;24.83;;;;;;;11.80;75.05;94330.72;5042449;28;20025;-85
2022/11/07 07:13:41;;;;;;;50.85;26.90;;;;;;;11.86;74.52;94323.34;5042338;28;20088;-87
2022/11/07 07:16:07;;;;;;;47.42;27.45;;;;;;;11.90;74.17;94328.91;5041106;28;20037;-85
2022/11/07 07:18:33;;;;;;;58.95;25.77;;;;;;;11.86;74.10;94331.38;5042757;28;20037;-87
2022/11/07 07:21:03;;;;;;;54.13;24.13;;;;;;;11.88;74.71;94325.72;5042217;28;20017;-87
2022/11/07 07:23:29;;;;;;;47.97;24.27;;;;;;;11.93;74.81;94333.66;5042340;28;20028;-87
2022/11/07 07:25:54;;;;;;;53.67;25.02;;;;;;;11.96;74.69;94333.00;5041429;28;20025;-86
2022/11/07 07:28:20;;;;;;;45.42;23.50;;;;;;;12.06;74.64;94339.97;5042469;28;20021;-87
2022/11/07 07:30:45;;;;;;;45.38;23.48;;;;;;;12.10;74.29;94340.91;5042208;28;20139;-86
2022/11/07 07:33:11;;;;;;;36.72;22.27;;;;;;;12.14;74.44;94333.84;5042051;28;20108;-88
2022/11/07 07:35:36;;;;;;;54.50;23.15;;;;;;;12.19;74.00;94339.84;5042720;28;20109;-91
2022/11/07 07:38:02;;;;;;;54.55;24.30;;;;;;;12.22;73.66;94333.88;5042863;28;20021;-88
2022/11/07 07:40:27;;;;;;;47.28;24.73;;;;;;;12.31;73.76;94333.09;5041956;28;20017;-87
2022/11/07 07:42:53;;;;;;;45.47;22.23;;;;;;;12.47;73.90;94330.75;5042268;28;20021;-88
2022/11/07 07:45:18;;;;;;;44.90;24.55;;;;;;;12.68;73.75;94325.59;5042274;28;20025;-78
2022/11/07 07:47:43;;;;;;;51.92;23.90;;;;;;;12.92;72.84;94331.25;5045895;28;20079;-76
2022/11/07 07:50:11;;;;;;;50.22;23.92;;;;;;;13.16;71.47;94329.97;5044449;28;20037;-75
2022/11/07 07:52:36;;;;;;;44.20;23.88;;;;;;;13.33;70.61;94331.84;5045871;28;20041;-76
2022/11/07 07:55:10;;;;;;;49.70;25.92;;;;;;;13.43;69.69;94335.00;5045734;28;20073;-76
2022/11/07 07:57:41;;;;;;;44.53;23.48;;;;;;;13.45;69.44;94337.34;5045497;28;20018;-76
2022/11/07 08:00:08;;;;;;;51.55;22.70;;;;;;;13.56;69.35;94335.13;5045537;28;20277;-75
2022/11/07 09:59:06;;;;;;;34.60;17.13;;;;;;;16.55;54.98;94318.50;5080183;28;20420;-81
2022/11/07 10:01:32;;;;;;;30.45;16.98;;;;;;;16.56;54.71;94314.66;5079938;28;20025;-81
2022/11/07 10:03:58;;;;;;;28.27;15.10;;;;;;;16.60;54.57;94315.53;5079799;28;20317;-80
2022/11/07 10:06:36;;;;;;;35.15;17.10;;;;;;;16.65;55.01;94312.63;5079496;28;20028;-80
2022/11/07 10:09:10;;;;;;;35.58;16.23;;;;;;;16.73;54.18;94319.00;5079650;28;20223;-78
2022/11/07 10:12:05;;;;;;;29.15;15.77;;;;;;;16.83;53.99;94312.38;5079355;28;20020;-79
2022/11/07 10:15:02;;;;;;;33.05;15.55;;;;;;;16.89;53.31;94307.53;5078684;28;20025;-80
2022/11/07 10:17:52;;;;;;;27.80;15.32;;;;;;;16.83;53.81;94307.81;5056822;28;20033;-81
2022/11/07 10:20:38;;;;;;;30.63;15.55;;;;;;;16.84;53.60;94303.19;5079644;28;20221;-83
2022/11/07 10:23:12;;;;;;;29.42;14.93;;;;;;;16.78;53.06;94291.06;5079340;28;20041;-81
2022/11/07 10:25:49;;;;;;;25.67;15.50;;;;;;;16.78;53.42;94299.91;5079364;28;20383;-84
2022/11/07 10:28:18;;;;;;;24.85;15.35;;;;;;;16.80;53.09;94294.19;5079721;28;20024;-82
2022/11/07 10:30:47;;;;;;;27.25;15.25;;;;;;;16.83;52.79;94296.22;5079024;28;20055;-80
2022/11/07 10:33:34;;;;;;;23.85;14.80;;;;;;;16.86;52.79;94284.78;5079337;28;20092;-79
2022/11/07 10:36:15;;;;;;;21.08;14.07;;;;;;;16.89;52.83;94284.09;5078959;28;20024;-79
2022/11/07 10:38:41;;;;;;;27.55;14.32;;;;;;;16.83;53.24;94280.06;5078005;28;20063;-79
2022/11/07 10:41:14;;;;;;;25.42;15.85;;;;;;;16.83;52.82;94280.06;5078796;28;20025;-80
2022/11/07 10:43:43;;;;;;;25.60;14.32;;;;;;;16.89;53.38;94278.69;5079110;28;20230;-83
2022/11/07 10:46:20;;;;;;;23.17;14.00;;;;;;;16.97;52.90;94269.69;5078787;28;20025;-77
2022/11/07 10:48:57;;;;;;;27.05;13.65;;;;;;;16.98;53.31;94268.59;5078109;28;20274;-77
2022/11/07 10:51:38;;;;;;;22.00;13.40;;;;;;;17.01;52.97;94270.56;5077805;28;20051;-81
2022/11/07 10:54:04;;;;;;;25.60;13.77;;;;;;;17.03;52.97;94265.63;5078784;28;20027;-80
2022/11/07 10:56:42;;;;;;;30.23;15.40;;;;;;;17.05;53.47;94262.59;5078858;28;20053;-79
2022/11/07 10:59:13;;;;;;;26.73;14.40;;;;;;;17.04;53.31;94259.13;5069733;28;20066;-80
2022/11/07 11:01:38;;;;;;;27.25;13.52;;;;;;;16.96;53.45;94260.06;5065485;28;20341;-79
2022/11/07 11:04:04;;;;;;;30.17;14.48;;;;;;;16.94;53.00;94256.16;5065437;28;20020;-82
2022/11/07 11:06:29;;;;;;;28.63;14.57;;;;;;;17.00;53.47;94254.78;5065243;28;20192;-78
2022/11/07 11:08:56;;;;;;;35.92;14.45;;;;;;;17.06;53.87;94256.09;5065427;28;20032;-77
2022/11/07 11:11:33;;;;;;;34.03;14.60;;;;;;;17.12;53.57;94249.34;5065541;28;20025;-80
2022/11/07 11:14:15;;;;;;;32.72;12.77;;;;;;;17.21;53.83;94241.88;5065255;28;20222;-79
2022/11/07 11:16:41;;;;;;;;;;;;;;;17.34;52.08;94249.88;5066205;28;20051;-81
2022/11/07 11:19:38;;;;;;;30.23;12.40;;;;;;;17.40;52.22;94249.28;5064945;28;19932;-77
2022/11/07 11:22:14;;;;;;;25.17;13.30;;;;;;;17.46;51.82;94241.72;5061291;28;20033;-80
2022/11/07 11:24:39;;;;;;;29.67;13.43;;;;;;;17.45;52.08;94246.34;5065019;28;20024;-78
2022/11/07 11:27:13;;;;;;;32.00;15.02;;;;;;;17.51;51.78;94232.63;5065007;28;20040;-80
2022/11/07 11:29:44;;;;;;;24.52;14.65;;;;;;;17.51;51.95;94243.41;5065054;28;20036;-79
2022/11/07 11:32:16;;;;;;;19.58;12.93;;;;;;;17.53;51.83;94236.53;5064984;28;20187;-80
2022/11/07 11:34:57;;;;;;;26.92;13.90;;;;;;;17.66;51.35;94234.50;5064932;28;20102;-81
2022/11/07 11:37:24;;;;;;;34.60;13.40;;;;;;;17.66;50.94;94223.72;5065006;28;20025;-80
2022/11/07 11:40:10;;;;;;;23.92;12.35;;;;;;;17.73;50.75;94229.31;5065001;28;20020;-78
2022/11/07 11:42:46;;;;;;;26.95;13.52;;;;;;;17.78;50.31;94223.63;5064692;28;20092;-82
2022/11/07 11:45:38;;;;;;;20.38;11.65;;;;;;;17.83;50.16;94219.94;5064887;28;20220;-80
2022/11/07 11:48:25;;;;;;;28.95;13.38;;;;;;;17.88;50.29;94218.88;5064714;28;20021;-85
2022/11/07 11:50:58;;;;;;;33.42;13.23;;;;;;;17.88;49.85;94213.50;5065332;28;20032;-84
2022/11/07 11:53:24;;;;;;;26.77;12.55;;;;;;;17.87;50.34;94218.09;5066284;28;20066;-86
2022/11/07 11:56:21;;;;;;;24.70;12.57;;;;;;;18.02;49.90;94219.19;5064940;28;20021;-86
2022/11/07 11:58:59;;;;;;;25.80;11.88;;;;;;;18.00;49.47;94207.97;5051110;28;20044;-86
2022/11/07 12:01:36;;;;;;;21.50;11.38;;;;;;;17.99;49.88;94217.19;5064782;28;20054;-85
2022/11/07 12:04:24;;;;;;;21.35;12.82;;;;;;;18.15;49.64;94209.06;5064665;28;20021;-85
2022/11/07 12:07:13;;;;;;;24.70;13.18;;;;;;;18.21;49.34;94207.66;5064736;28;20075;-85
2022/11/07 12:09:50;;;;;;;25.20;12.45;;;;;;;18.21;49.43;94205.75;5063971;28;20166;-85
2022/11/07 12:12:51;;;;;;;26.98;11.50;;;;;;;18.29;49.31;94197.81;5064041;28;20247;-85
2022/11/07 12:15:28;;;;;;;28.95;13.60;;;;;;;18.31;48.96;94190.91;5064341;28;20341;-85
2022/11/07 12:18:08;;;;;;;23.98;13.40;;;;;;;18.31;48.97;94195.53;5063944;28;20017;-85
2022/11/07 12:20:46;;;;;;;25.25;12.45;;;;;;;18.34;49.29;94194.81;5063818;28;20306;-88
2022/11/07 12:23:12;;;;;;;30.90;12.90;;;;;;;18.50;49.09;94192.88;5064078;28;20376;-85
2022/11/07 12:25:48;;;;;;;19.02;12.35;;;;;;;18.57;48.56;94190.28;5063850;28;20092;-85
2022/11/07 12:28:58;;;;;;;23.45;12.77;;;;;;;18.62;48.95;94189.22;5063687;28;20021;-86
2022/11/07 12:32:17;;;;;;;25.65;12.05;;;;;;;18.62;48.68;94187.31;5061469;28;20037;-81
2022/11/07 12:35:12;;;;;;;26.90;12.85;;;;;;;18.72;48.57;94180.53;5061438;28;20040;-80
2022/11/07 12:37:52;;;;;;;19.02;11.55;;;;;;;18.82;48.09;94179.22;5063585;28;20023;-80
2022/11/07 12:40:36;;;;;;;25.25;11.65;;;;;;;18.88;47.40;94191.28;5063720;28;20032;-84
2022/11/07 12:43:10;;;;;;;27.17;12.27;;;;;;;18.92;47.96;94180.56;5063682;28;20027;-82
2022/11/07 12:45:56;;;;;;;20.33;12.65;;;;;;;19.02;48.06;94174.56;5063716;28;20029;-80
2022/11/07 12:48:33;;;;;;;24.15;13.38;;;;;;;19.09;46.70;94180.13;5063562;28;20047;-82
2022/11/07 12:51:19;;;;;;;27.67;12.50;;;;;;;19.09;46.29;94174.72;5063614;28;20234;-82
2022/11/07 12:53:59;;;;;;;31.00;12.50;;;;;;;19.17;46.85;94172.91;5063548;28;20032;-83
2022/11/07 12:56:31;;;;;;;23.42;11.63;;;;;;;19.26;46.31;94175.38;5063305;28;20025;-81
2022/11/07 12:58:59;;;;;;;24.17;12.55;;;;;;;19.25;46.34;94177.28;5063139;28;20048;-80
2022/11/07 13:01:35;;;;;;;26.63;11.85;;;;;;;19.22;46.60;94176.09;5062278;28;20020;-81
2022/11/07 13:04:21;;;;;;;35.72;12.63;;;;;;;19.39;46.35;94180.22;5063029;28;20096;-81
2022/11/07 13:06:57;;;;;;;27.80;12.55;;;;;;;19.50;45.74;94180.41;5063314;28;20088;-82
2022/11/07 13:09:30;;;;;;;19.38;13.02;;;;;;;19.56;45.58;94180.88;5063378;28;20021;-82
2022/11/07 13:11:59;;;;;;;22.77;11.63;;;;;;;19.61;45.29;94180.59;5063901;28;20318;-81
2022/11/07 13:14:37;;;;;;;27.42;12.23;;;;;;;19.62;44.97;94171.31;5063174;28;20041;-81
2022/11/07 13:17:02;;;;;;;23.73;11.80;;;;;;;19.63;45.06;94170.19;5062540;28;20044;-76
2022/11/07 13:19:32;;;;;;;37.17;13.35;;;;;;;19.69;44.69;94182.25;5063039;28;20066;-77
2022/11/07 13:22:17;;;;;;;26.17;13.35;;;;;;;19.71;44.55;94176.53;5062702;28;20047;-76
2022/11/07 13:25:05;;;;;;;32.95;12.93;;;;;;;19.65;44.98;94178.72;5062785;28;20112;-76
2022/11/07 13:27:36;;;;;;;26.77;11.57;;;;;;;19.68;45.20;94179.91;5062720;28;20021;-76
2022/11/07 13:30:13;;;;;;;24.45;11.70;;;;;;;19.67;44.75;94194.59;5062673;28;20067;-79
2022/11/07 13:32:49;;;;;;;25.17;12.95;;;;;;;19.66;44.88;94180.25;5062744;28;20031;-78
2022/11/07 13:35:25;;;;;;;23.10;10.93;;;;;;;19.62;44.87;94184.84;5062684;28;20051;-77
2022/11/07 13:38:18;;;;;;;32.20;11.27;;;;;;;19.56;44.81;94188.97;5062661;28;20021;-76